Grand Beach, Canada
Current Conditions -  °F | °C
As of 10:00 PM on Thursday 18 Dec 2014 (Local Time) from CYWG Reporting Station
Overcast Overcast  
Wind Chill:   Ceiling: 3600
Heat Index: 19°   Visibility: 15mi
Dew Point: 14°   Wind: 13mph
Humidity: 80%   Direction: 170°S
Pressure: 30.13"   Gusts: 24mph
Location:  50.55°N, 96.63°W
Report Text: CYWG 190400Z 17011G21KT 15SM SCT012 OVC036 M07/M10 A3013 RMK SF3SC5 SLP223
Loading
Personal Weather Stations






























Interactive Weather Map New forecast layout! Learn more

10-Day Weather Forecast

Advertisements
Track Severe Weather on mobile